Kaisho Maru — JD3221 — position and weather

sailwx.info

Track history (hours):
 
Tides and Currents Weather Stations Pressure Air Temp Water Temp Dewpoint Dewpoint Depression Visibility Wind Speed Wind Dir Waves Ship Positions

Kaisho Maru

Last reported at 2017-Oct-14 16:35 UTC. Time now 2017-Oct-20 01:34 UTC.
Position N 34°34' E 134°51'.

Length 74 m; draft 4.2 m.

Type: Cargo ship. MMSI: 431002702.

Date/timePositionNaut miles runAvg speedWind from/ knotsBaromVisibWave heightAir tempDewpointWater temp
2017-Oct-14 16:35N 34°34' E 134°51'212.0
2017-Oct-14 16:25N 34°35' E 134°53'711.3
2017-Oct-14 15:49N 34°37' E 135°01'3 9.6
2017-Oct-14 15:30N 34°36' E 135°04'5 9.1
2017-Oct-14 14:59N 34°31' E 135°04'217 9.0
2017-Oct-13 14:55N 34°60' E 139°26'711.3
2017-Oct-13 14:17N 35°03' E 139°34'311.6
2017-Oct-13 14:00N 35°05' E 139°37'612.4
2017-Oct-13 13:30N 35°09' E 139°43'612.6
2017-Oct-13 13:00N 35°14' E 139°46'612.4
2017-Oct-13 12:30N 35°20' E 139°42'612.8
2017-Oct-13 12:00N 35°26' E 139°43'4 8.4
2017-Oct-13 11:30N 35°30' E 139°44'0 0.5
2017-Oct-13 11:00N 35°31' E 139°44'0 0.0
2017-Oct-13 10:30N 35°31' E 139°44'0 0.0
2017-Oct-13 09:58N 35°31' E 139°44'0 0.0
2017-Oct-13 09:28N 35°31' E 139°44'0 0.0
2017-Oct-11 23:40N 35°30' E 139°44'2 4.2
2017-Oct-11 23:07N 35°29' E 139°42'1 7.9
2017-Oct-11 23:00N 35°28' E 139°42'1 0.0
2017-Oct-10 19:40N 35°27' E 139°43'0 0.0
2017-Oct-10 19:04N 35°27' E 139°43'0 0.0
2017-Oct-10 16:52N 35°27' E 139°42'0 0.0
2017-Oct-10 10:27N 35°27' E 139°43'510.8
2017-Oct-10 09:58N 35°21' E 139°43'612.5
2017-Oct-10 09:30N 35°16' E 139°46'612.2
2017-Oct-10 09:00N 35°10' E 139°46'612.7
2017-Oct-10 08:30N 35°04' E 139°45'  
2017-Oct-08 00:54N 34°03' E 135°00'512.9
2017-Oct-08 00:31N 34°08' E 134°59'612.5
2017-Oct-08 00:00N 34°14' E 134°59'610.2
2017-Oct-07 23:24N 34°20' E 134°60'511.6
2017-Oct-07 22:56N 34°25' E 135°04'613.2
2017-Oct-07 22:29N 34°28' E 135°10'613.0
2017-Oct-07 22:00N 34°32' E 135°16'712.8
2017-Oct-07 21:30N 34°36' E 135°22'5 9.0
2017-Oct-07 20:56N 34°35' E 135°28'0 0.0
2017-Oct-06 07:42N 34°35' E 135°27'1 5.2
2017-Oct-06 07:30N 34°35' E 135°26'611.1
2017-Oct-06 07:00N 34°36' E 135°19'611.4
2017-Oct-06 06:30N 34°35' E 135°13'612.0
2017-Oct-06 06:00N 34°34' E 135°05'  
Track history (hours):
 
Tides and Currents Weather Stations Pressure Air Temp Water Temp Dewpoint Dewpoint Depression Visibility Wind Speed Wind Dir Waves Ship Positions

Kaisho Maru

Last reported at 2017-Oct-14 16:35 UTC. Time now 2017-Oct-20 01:34 UTC.
Position N 34°34' E 134°51'.

Length 74 m; draft 4.2 m.

Type: Cargo ship. MMSI: 431002702.

Date/timePositionNaut miles runAvg speedWind from/ knotsBaromVisibWave heightAir tempDewpointWater temp
2017-Oct-14 16:35N 34°34' E 134°51'212.0
2017-Oct-14 16:25N 34°35' E 134°53'711.3
2017-Oct-14 15:49N 34°37' E 135°01'3 9.6
2017-Oct-14 15:30N 34°36' E 135°04'5 9.1
2017-Oct-14 14:59N 34°31' E 135°04'217 9.0
2017-Oct-13 14:55N 34°60' E 139°26'711.3
2017-Oct-13 14:17N 35°03' E 139°34'311.6
2017-Oct-13 14:00N 35°05' E 139°37'612.4
2017-Oct-13 13:30N 35°09' E 139°43'612.6
2017-Oct-13 13:00N 35°14' E 139°46'612.4
2017-Oct-13 12:30N 35°20' E 139°42'612.8
2017-Oct-13 12:00N 35°26' E 139°43'4 8.4
2017-Oct-13 11:30N 35°30' E 139°44'0 0.5
2017-Oct-13 11:00N 35°31' E 139°44'0 0.0
2017-Oct-13 10:30N 35°31' E 139°44'0 0.0
2017-Oct-13 09:58N 35°31' E 139°44'0 0.0
2017-Oct-13 09:28N 35°31' E 139°44'0 0.0
2017-Oct-11 23:40N 35°30' E 139°44'2 4.2
2017-Oct-11 23:07N 35°29' E 139°42'1 7.9
2017-Oct-11 23:00N 35°28' E 139°42'1 0.0
2017-Oct-10 19:40N 35°27' E 139°43'0 0.0
2017-Oct-10 19:04N 35°27' E 139°43'0 0.0
2017-Oct-10 16:52N 35°27' E 139°42'0 0.0
2017-Oct-10 10:27N 35°27' E 139°43'510.8
2017-Oct-10 09:58N 35°21' E 139°43'612.5
2017-Oct-10 09:30N 35°16' E 139°46'612.2
2017-Oct-10 09:00N 35°10' E 139°46'612.7
2017-Oct-10 08:30N 35°04' E 139°45'  
2017-Oct-08 00:54N 34°03' E 135°00'512.9
2017-Oct-08 00:31N 34°08' E 134°59'612.5
2017-Oct-08 00:00N 34°14' E 134°59'610.2
2017-Oct-07 23:24N 34°20' E 134°60'511.6
2017-Oct-07 22:56N 34°25' E 135°04'613.2
2017-Oct-07 22:29N 34°28' E 135°10'613.0
2017-Oct-07 22:00N 34°32' E 135°16'712.8
2017-Oct-07 21:30N 34°36' E 135°22'5 9.0
2017-Oct-07 20:56N 34°35' E 135°28'0 0.0
2017-Oct-06 07:42N 34°35' E 135°27'1 5.2
2017-Oct-06 07:30N 34°35' E 135°26'611.1
2017-Oct-06 07:00N 34°36' E 135°19'611.4
2017-Oct-06 06:30N 34°35' E 135°13'612.0
2017-Oct-06 06:00N 34°34' E 135°05'  

Dump ship's entire track history